Orange Star — A8WP6 — position and weather

sailwx.info

Track history (hours):
 
Tides and Currents Weather Stations Pressure Air Temp Water Temp Dewpoint Dewpoint Depression Visibility Wind Speed Wind Dir Waves Ship Positions

Orange Star

Last reported at 2018-Jul-13 21:49 UTC. Time now 2018-Jul-21 05:51 UTC.
Position S 24°11' W 045°22'.

Length 192 m; draft 9.2 m.

Type: Cargo ship. MMSI: 636014800.

Date/timePositionNaut miles runAvg speedWind from/ knotsBaromVisibWave heightAir tempDewpointWater temp
2018-Jul-13 21:49S 24°11' W 045°22'713.3
2018-Jul-13 21:19S 24°14' W 045°29'1213.0
2018-Jul-13 20:26S 24°16' W 045°41'1112.8
2018-Jul-13 19:32S 24°14' W 045°54'013.0
2018-Jul-13 19:30S 24°14' W 045°54'712.7
2018-Jul-13 18:56S 24°11' W 046°01'512.0
2018-Jul-13 18:30S 24°09' W 046°06'4 7.4
2018-Jul-13 18:00S 24°07' W 046°10'0 0.3
2018-Jul-13 17:28S 24°08' W 046°10'0 0.1
2018-Jul-13 16:58S 24°08' W 046°10'0 0.0
2018-Jul-13 16:22S 24°08' W 046°10'0 0.0
2018-Jul-13 15:55S 24°08' W 046°10'0 0.0
2018-Jul-13 15:28S 24°08' W 046°10'0 0.0
2018-Jul-13 14:52S 24°08' W 046°10'0 0.0
2018-Jul-13 13:58S 24°08' W 046°10'0 0.0
2018-Jul-13 13:28S 24°08' W 046°10'0 0.0
2018-Jul-13 12:52S 24°08' W 046°10'0 0.0
2018-Jul-13 12:10S 24°08' W 046°10'0 0.1
2018-Jul-13 11:58S 24°08' W 046°10'0 0.0
2018-Jul-13 11:28S 24°08' W 046°10'0 0.0
2018-Jul-13 10:10S 24°08' W 046°10'0 0.0
2018-Jul-13 09:52S 24°08' W 046°10'0 0.0
2018-Jul-13 09:16S 24°08' W 046°10'0 0.0
2018-Jul-13 08:58S 24°08' W 046°10'0 0.0
2018-Jul-13 08:25S 24°08' W 046°10'0 0.0
2018-Jul-13 07:58S 24°08' W 046°10'0 0.0
2018-Jul-13 07:31S 24°08' W 046°10'2 4.6
2018-Jul-13 07:00S 24°07' W 046°08'1 1.5
2018-Jul-13 06:30S 24°06' W 046°07'611.8
2018-Jul-13 06:01S 24°04' W 046°13'611.8
2018-Jul-13 05:30S 24°02' W 046°19'3 5.5
2018-Jul-13 05:00S 23°60' W 046°19'  
2018-Jul-09 16:21S 23°59' W 046°17'2 5.9
2018-Jul-09 16:00S 23°60' W 046°19'3 6.3
2018-Jul-09 15:30S 24°03' W 046°19'5 9.3
2018-Jul-09 15:00S 24°04' W 046°14'5 9.8
2018-Jul-09 14:29S 24°06' W 046°09'  
Track history (hours):
 
Tides and Currents Weather Stations Pressure Air Temp Water Temp Dewpoint Dewpoint Depression Visibility Wind Speed Wind Dir Waves Ship Positions

Orange Star

Last reported at 2018-Jul-13 21:49 UTC. Time now 2018-Jul-21 05:51 UTC.
Position S 24°11' W 045°22'.

Length 192 m; draft 9.2 m.

Type: Cargo ship. MMSI: 636014800.

Date/timePositionNaut miles runAvg speedWind from/ knotsBaromVisibWave heightAir tempDewpointWater temp
2018-Jul-13 21:49S 24°11' W 045°22'713.3
2018-Jul-13 21:19S 24°14' W 045°29'1213.0
2018-Jul-13 20:26S 24°16' W 045°41'1112.8
2018-Jul-13 19:32S 24°14' W 045°54'013.0
2018-Jul-13 19:30S 24°14' W 045°54'712.7
2018-Jul-13 18:56S 24°11' W 046°01'512.0
2018-Jul-13 18:30S 24°09' W 046°06'4 7.4
2018-Jul-13 18:00S 24°07' W 046°10'0 0.3
2018-Jul-13 17:28S 24°08' W 046°10'0 0.1
2018-Jul-13 16:58S 24°08' W 046°10'0 0.0
2018-Jul-13 16:22S 24°08' W 046°10'0 0.0
2018-Jul-13 15:55S 24°08' W 046°10'0 0.0
2018-Jul-13 15:28S 24°08' W 046°10'0 0.0
2018-Jul-13 14:52S 24°08' W 046°10'0 0.0
2018-Jul-13 13:58S 24°08' W 046°10'0 0.0
2018-Jul-13 13:28S 24°08' W 046°10'0 0.0
2018-Jul-13 12:52S 24°08' W 046°10'0 0.0
2018-Jul-13 12:10S 24°08' W 046°10'0 0.1
2018-Jul-13 11:58S 24°08' W 046°10'0 0.0
2018-Jul-13 11:28S 24°08' W 046°10'0 0.0
2018-Jul-13 10:10S 24°08' W 046°10'0 0.0
2018-Jul-13 09:52S 24°08' W 046°10'0 0.0
2018-Jul-13 09:16S 24°08' W 046°10'0 0.0
2018-Jul-13 08:58S 24°08' W 046°10'0 0.0
2018-Jul-13 08:25S 24°08' W 046°10'0 0.0
2018-Jul-13 07:58S 24°08' W 046°10'0 0.0
2018-Jul-13 07:31S 24°08' W 046°10'2 4.6
2018-Jul-13 07:00S 24°07' W 046°08'1 1.5
2018-Jul-13 06:30S 24°06' W 046°07'611.8
2018-Jul-13 06:01S 24°04' W 046°13'611.8
2018-Jul-13 05:30S 24°02' W 046°19'3 5.5
2018-Jul-13 05:00S 23°60' W 046°19'  
2018-Jul-09 16:21S 23°59' W 046°17'2 5.9
2018-Jul-09 16:00S 23°60' W 046°19'3 6.3
2018-Jul-09 15:30S 24°03' W 046°19'5 9.3
2018-Jul-09 15:00S 24°04' W 046°14'5 9.8
2018-Jul-09 14:29S 24°06' W 046°09'  

Dump ship's entire track history